AQJ weather

Aqaba King Hussein International Airport
Aqaba, Al 'Aqaba Governorate, Jordan

Public forecast

Using degrees Celsius for public forecast. Weather courtesy of forecast.io.

METAR (pilot weather report)

Retrieved 2019/02/20 10:00 UTC (1 hour ago):

OJAQ 201000Z 35010KT CAVOK 19/04 Q1022 NOSIG

TAF (pilot weather forecast)

Retrieved 2019/02/20 06:00 UTC (5 hours ago):

TAF OJAQ 200451Z 2006/2112 01010KT CAVOK TEMPO 2008/2015 9999 SCT030